Etusivu
METAR-TAF:

METAR-TAF

Lentoasemat :

Caracas, Venezuela

Leveyspiiri: 10-36N, Pituuspiiri: 066-59W, korkeus merenpinnasta: 43 m

Tämänhetkinen sää

Tämä raportti tehtiin 27 minuuttia sitten, kello 17.00 UTC
Tuuli 5 kn idästä/kaakosta
Lämpötila 29°C
Kosteus 74%
Ilmanpaine 1012 hPa
Näkyvyys 10 km tai enemmän
Hajanaisia pilviä 1600 ft:n korkeudessa

METAR: SVMI 231700Z 11005KT 9999 SCT016 29/24 Q1012

Aika: 13:27 (17:27 UTC)

Sääennuste

Tämä raportti tehtiin 13 tuntia ja 27 minuuttia sitten, kello 04.00 UTC
Ennuste voimassa 23. päivästä klo 00 UTC - 24. päivään klo 00 UTC
Tuuli 5 kn idästä
Näkyvyys 10 km tai enemmän
Hajanaisia pilviä 1600 ft:n korkeudessa
Tulossa
23. päivästä klo 00 UTC - 24. päivään klo 00 UTC
Tuuli 5 kn lännestä/luoteesta

TAF: SVMI 230400Z 2300/2400 09005KT 9999 SCT016 TX32/1900Z TN24/0900Z BECMG 2300/2400 29005KT

Säähavainnot ja -ennusteet yli 4000 lentoasemalta (METAR- ja TAF-raportit).

Käytössä olevat sääasemat on merkitty karttaan keltaisilla ja punaisilla pisteillä.

Aseta hiiri pisteen päälle nähdäksesi sääaseman nimen.

Klikkaa sitten nähdäksesi säähavainnot ja -ennusteet.

Kartan vaihtaminen: klikkaa mustalla rastilla varustettuja vihreitä pisteitä, niin voit zoomata sisään; viivalla varustettua vihreää pistettä, niin voit zoomata ulos tai vihreitä nuolia, niin pääset viereisille kartoille.


METAR-TAF: